Time;durP1;ratioP1;P1;durP2;ratioP2;P2;SDS_P1;SDS_P2;PMS_P1;PMS_P2;Temp;Humidity;BMP_temperature;BMP_pressure;BME280_temperature;BME280_humidity;BME280_pressure;Samples;Min_cycle;Max_cycle;Signal;HPM_P1;HPM_P2
2021/12/10 00:01:00;;;;;;;259.50;82.78;;;13.00;71.30;;;;;;5099456;28;20074;-71
2021/12/10 00:03:31;;;;;;;265.13;78.43;;;12.90;71.20;;;;;;5099546;28;20039;-71
2021/12/10 00:06:00;;;;;;;253.25;81.68;;;13.00;71.40;;;;;;5099459;28;20081;-71
2021/12/10 00:08:29;;;;;;;268.75;82.30;;;13.00;71.20;;;;;;5099445;28;20061;-71
2021/12/10 00:10:57;;;;;;;252.27;78.80;;;13.00;71.40;;;;;;5099250;28;20058;-70
2021/12/10 00:13:25;;;;;;;256.08;79.15;;;13.00;71.30;;;;;;5099324;28;20039;-71
2021/12/10 00:15:54;;;;;;;257.48;82.40;;;13.00;71.40;;;;;;5098954;28;20020;-71
2021/12/10 00:18:21;;;;;;;258.45;80.93;;;13.00;71.50;;;;;;5103469;28;20024;-70
2021/12/10 00:20:49;;;;;;;253.20;82.45;;;12.90;71.40;;;;;;5103168;28;20019;-71
2021/12/10 00:23:18;;;;;;;230.70;76.88;;;13.00;71.50;;;;;;5085226;28;20028;-71
2021/12/10 00:25:49;;;;;;;261.92;79.43;;;13.00;71.40;;;;;;5103278;28;20043;-71
2021/12/10 00:28:31;;;;;;;228.55;76.00;;;13.00;71.40;;;;;;5103299;28;20073;-71
2021/12/10 00:31:43;;;;;;;276.38;77.93;;;13.00;71.40;;;;;;5103170;28;20020;-70
2021/12/10 00:34:39;;;;;;;252.10;78.13;;;13.00;71.30;;;;;;5095379;28;20347;-70
2021/12/10 00:37:09;;;;;;;264.02;80.97;;;13.00;71.20;;;;;;5100597;28;20266;-70
2021/12/10 00:39:41;;;;;;;266.98;82.63;;;13.00;71.40;;;;;;5103042;28;20035;-70
2021/12/10 00:42:11;;;;;;;254.65;80.03;;;13.00;71.50;;;;;;5103119;28;20030;-71
2021/12/10 00:44:37;;;;;;;269.02;80.15;;;13.00;71.30;;;;;;5102936;28;20052;-71
2021/12/10 00:47:04;;;;;;;262.40;80.95;;;13.00;71.40;;;;;;5084731;28;20024;-70
2021/12/10 00:49:30;;;;;;;249.10;77.47;;;13.00;71.30;;;;;;5102805;28;20024;-71
2021/12/10 00:51:56;;;;;;;246.60;76.82;;;13.00;71.30;;;;;;5102713;28;20027;-71
2021/12/10 00:54:22;;;;;;;243.27;78.68;;;13.00;71.40;;;;;;5102485;28;20055;-71
2021/12/10 00:56:48;;;;;;;255.38;78.30;;;13.00;71.10;;;;;;5102739;28;20016;-71
2021/12/10 00:59:17;;;;;;;260.15;81.95;;;13.00;71.30;;;;;;5084280;28;20335;-71
2021/12/10 01:01:43;;;;;;;263.88;78.05;;;13.00;71.30;;;;;;5102540;28;20027;-71
2021/12/10 01:04:12;;;;;;;280.77;80.07;;;13.00;71.20;;;;;;5102536;28;20058;-70
2021/12/10 01:06:41;;;;;;;242.93;78.70;;;13.00;71.30;;;;;;5102507;28;20015;-72
2021/12/10 01:09:12;;;;;;;;;;;13.00;71.40;;;;;;5102820;28;20024;-70
2021/12/10 01:11:42;;;;;;;238.73;78.03;;;13.00;71.30;;;;;;5102407;28;19915;-71
2021/12/10 01:14:21;;;;;;;246.60;81.50;;;13.00;71.40;;;;;;5102239;28;20024;-70
2021/12/10 01:25:09;;;;;;;238.18;74.55;;;13.00;71.50;;;;;;5102091;28;20565;-70
2021/12/10 01:27:39;;;;;;;217.05;75.90;;;13.00;71.30;;;;;;5101530;28;20043;-70
2021/12/10 01:30:18;;;;;;;232.70;77.65;;;13.00;71.50;;;;;;5102073;28;20189;-70
2021/12/10 01:32:48;;;;;;;255.80;78.60;;;13.00;71.40;;;;;;5101973;28;20061;-71
2021/12/10 01:35:21;;;;;;;223.73;74.90;;;13.00;71.40;;;;;;5101796;28;20032;-71
2021/12/10 01:37:51;;;;;;;227.23;75.35;;;13.00;71.20;;;;;;5101866;28;20053;-71
2021/12/10 01:40:20;;;;;;;229.27;74.13;;;13.00;71.20;;;;;;5101832;28;20023;-71
2021/12/10 01:42:48;;;;;;;;;;;13.00;71.20;;;;;;5102144;28;20058;-72
2021/12/10 01:45:20;;;;;;;;;;;13.00;71.30;;;;;;5102194;28;19907;-71
2021/12/10 01:47:49;;;;;;;;;;;13.00;71.40;;;;;;5102202;28;19953;-70
2021/12/10 01:50:15;;;;;;;;;;;13.00;71.30;;;;;;5083835;28;19904;-70
2021/12/10 01:52:40;;;;;;;;;;;13.00;71.40;;;;;;5102091;28;19906;-70
2021/12/10 01:55:07;;;;;;;;;;;13.00;71.30;;;;;;5083645;28;20199;-70
2021/12/10 01:57:34;;;;;;;;;;;13.00;71.30;;;;;;5101847;28;19904;-70
2021/12/10 02:00:00;;;;;;;;;;;13.00;71.10;;;;;;5101950;28;20088;-70
2021/12/10 02:02:28;;;;;;;;;;;13.00;71.30;;;;;;5101834;28;19900;-71
2021/12/10 02:04:54;;;;;;;;;;;13.00;71.40;;;;;;5101828;28;19923;-70
2021/12/10 02:07:21;;;;;;;;;;;13.10;71.20;;;;;;5083617;28;20219;-71
2021/12/10 02:09:47;;;;;;;;;;;13.00;71.30;;;;;;5101750;28;20042;-71
2021/12/10 02:12:12;;;;;;;;;;;13.00;71.10;;;;;;5101590;28;19908;-70
2021/12/10 02:14:38;;;;;;;;;;;13.00;71.30;;;;;;5101492;28;20216;-71
2021/12/10 02:17:04;;;;;;;;;;;13.00;71.20;;;;;;5083410;28;20196;-71
2021/12/10 02:19:30;;;;;;;;;;;13.00;71.20;;;;;;5101608;28;19975;-70
2021/12/10 02:21:56;;;;;;;;;;;13.00;71.10;;;;;;5101402;28;19900;-70
2021/12/10 02:24:22;;;;;;;;;;;13.00;71.30;;;;;;5101572;28;19908;-71
2021/12/10 02:26:50;;;;;;;;;;;13.10;71.10;;;;;;5101333;28;19950;-71
2021/12/10 02:29:16;;;;;;;;;;;13.10;71.30;;;;;;5083158;28;19900;-70
2021/12/10 02:31:41;;;;;;;;;;;13.10;71.20;;;;;;5101229;28;19908;-70
2021/12/10 02:34:08;;;;;;;;;;;13.00;71.30;;;;;;5101298;28;19915;-72
2021/12/10 02:36:34;;;;;;;;;;;13.00;71.10;;;;;;5101098;28;19912;-71
2021/12/10 02:38:59;;;;;;;;;;;13.10;71.20;;;;;;5100286;28;19908;-71
2021/12/10 02:41:27;;;;;;;;;;;13.10;71.20;;;;;;5100994;28;19900;-71
2021/12/10 02:43:53;;;;;;;;;;;13.10;71.20;;;;;;5101093;28;19969;-71
2021/12/10 02:46:19;;;;;;;;;;;13.10;71.20;;;;;;5100949;28;20191;-71
2021/12/10 02:48:45;;;;;;;;;;;13.10;71.10;;;;;;5100933;28;19907;-71
2021/12/10 02:51:11;;;;;;;;;;;13.10;71.10;;;;;;5100853;28;19899;-71
2021/12/10 02:53:41;;;;;;;;;;;13.10;71.00;;;;;;5100817;28;19907;-70
2021/12/10 02:56:18;;;;;;;;;;;13.10;71.20;;;;;;5100565;28;19920;-71
2021/12/10 02:58:45;;;;;;;;;;;13.10;71.20;;;;;;5100729;28;20171;-70
2021/12/10 03:01:17;;;;;;;;;;;13.10;71.30;;;;;;5082576;28;20185;-71
2021/12/10 03:03:43;;;;;;;;;;;13.10;71.20;;;;;;5100635;28;19968;-71
2021/12/10 03:06:11;;;;;;;;;;;13.10;71.20;;;;;;5100565;28;19912;-70
2021/12/10 03:08:40;;;;;;;;;;;13.10;71.00;;;;;;5100533;28;19908;-70
2021/12/10 03:11:06;;;;;;;;;;;13.10;71.00;;;;;;5100523;28;19958;-70
2021/12/10 03:13:32;;;;;;;;;;;13.10;71.10;;;;;;5100544;28;20211;-72
2021/12/10 03:15:58;;;;;;;;;;;13.10;71.10;;;;;;5100356;28;19981;-71
2021/12/10 03:18:23;;;;;;;;;;;13.10;71.10;;;;;;5100379;28;19908;-71
2021/12/10 03:20:49;;;;;;;;;;;13.10;71.20;;;;;;5100364;28;19915;-71
2021/12/10 03:23:15;;;;;;;;;;;13.10;71.00;;;;;;5082092;28;19900;-70
2021/12/10 03:25:41;;;;;;;;;;;13.10;71.10;;;;;;5100222;28;19984;-71
2021/12/10 03:28:07;;;;;;;;;;;13.10;71.10;;;;;;5100188;28;19915;-70
2021/12/10 03:30:35;;;;;;;;;;;13.10;70.90;;;;;;5100212;28;19914;-71
2021/12/10 03:33:00;;;;;;;;;;;13.10;71.10;;;;;;5100111;28;19975;-71
2021/12/10 03:35:29;;;;;;;;;;;13.10;71.10;;;;;;5100146;28;19954;-71
2021/12/10 03:37:56;;;;;;;;;;;13.10;71.00;;;;;;5100049;28;20092;-70
2021/12/10 03:40:22;;;;;;;;;;;13.10;71.00;;;;;;5100062;28;20215;-72
2021/12/10 03:42:49;;;;;;;;;;;13.10;71.10;;;;;;5100113;28;19915;-70
2021/12/10 03:45:16;;;;;;;;;;;13.10;71.10;;;;;;5099970;28;19904;-71
2021/12/10 03:47:42;;;;;;;;;;;13.10;71.10;;;;;;5099893;28;19941;-72
2021/12/10 03:50:08;;;;;;;;;;;13.10;71.10;;;;;;5099795;28;19908;-71
2021/12/10 03:52:34;;;;;;;;;;;13.10;71.10;;;;;;5099915;28;19908;-70
2021/12/10 03:55:01;;;;;;;;;;;13.10;71.00;;;;;;5099655;28;19923;-70
2021/12/10 03:57:27;;;;;;;;;;;13.10;71.20;;;;;;5099787;28;20165;-70
2021/12/10 03:59:52;;;;;;;;;;;13.10;71.10;;;;;;5099792;28;19908;-70
2021/12/10 04:02:18;;;;;;;;;;;13.10;71.10;;;;;;5099843;28;19966;-71
2021/12/10 04:04:46;;;;;;;;;;;13.10;70.90;;;;;;5099723;28;19949;-71
2021/12/10 04:07:15;;;;;;;;;;;13.10;70.90;;;;;;5099790;28;20164;-70
2021/12/10 04:09:40;;;;;;;;;;;13.10;71.00;;;;;;5099768;28;19907;-70
2021/12/10 04:12:08;;;;;;;;;;;13.10;71.00;;;;;;5081655;28;19900;-71
2021/12/10 04:14:35;;;;;;;;;;;13.10;71.00;;;;;;5081500;28;19912;-70
2021/12/10 04:17:01;;;;;;;;;;;13.10;71.10;;;;;;5099697;28;19907;-71
2021/12/10 04:19:28;;;;;;;;;;;13.10;71.00;;;;;;5099714;28;20347;-71
2021/12/10 04:21:57;;;;;;;;;;;13.10;71.00;;;;;;5099469;28;20143;-71
2021/12/10 04:24:24;;;;;;;;;;;13.10;71.10;;;;;;5099611;28;20097;-72
2021/12/10 04:26:51;;;;;;;;;;;13.10;70.90;;;;;;5099551;28;19907;-71
2021/12/10 04:29:20;;;;;;;;;;;13.10;71.00;;;;;;5099616;28;19908;-69
2021/12/10 04:31:46;;;;;;;;;;;13.10;71.00;;;;;;5099518;28;19907;-70
2021/12/10 04:34:12;;;;;;;;;;;13.10;71.00;;;;;;5099543;28;20088;-72
2021/12/10 04:36:37;;;;;;;;;;;13.10;71.00;;;;;;5099367;28;20219;-70
2021/12/10 04:39:03;;;;;;;;;;;13.10;71.00;;;;;;5099478;28;19915;-70
2021/12/10 04:41:29;;;;;;;;;;;13.10;71.00;;;;;;5099456;28;19908;-71
2021/12/10 04:43:54;;;;;;;;;;;13.10;71.00;;;;;;5099365;28;19899;-70
2021/12/10 04:46:20;;;;;;;;;;;13.10;71.10;;;;;;5099449;28;19931;-70
2021/12/10 04:48:57;;;;;;;;;;;13.10;71.00;;;;;;5099443;28;20158;-70
2021/12/10 04:51:24;;;;;;;;;;;13.10;71.00;;;;;;5099404;28;19908;-71
2021/12/10 04:53:50;;;;;;;;;;;13.10;71.00;;;;;;5099340;28;19911;-70
2021/12/10 04:56:16;;;;;;;;;;;13.10;71.00;;;;;;5099172;28;20188;-71
2021/12/10 04:58:42;;;;;;;;;;;13.10;71.00;;;;;;5099315;28;19915;-70
2021/12/10 05:01:07;;;;;;;;;;;13.10;71.00;;;;;;5099260;28;19908;-72
2021/12/10 05:03:33;;;;;;;;;;;13.10;71.10;;;;;;5101915;28;20407;-70
2021/12/10 05:06:03;;;;;;;;;;;13.10;71.10;;;;;;5102983;28;20206;-71
2021/12/10 05:08:29;;;;;;;;;;;13.10;71.10;;;;;;5102909;28;19915;-71
2021/12/10 05:10:55;;;;;;;;;;;13.10;71.10;;;;;;5102796;28;19983;-70
2021/12/10 05:13:21;;;;;;;;;;;13.10;71.00;;;;;;5102709;28;19907;-70
2021/12/10 05:15:53;;;;;;;;;;;13.10;70.90;;;;;;5102618;28;19919;-71
2021/12/10 05:18:19;;;;;;;;;;;13.10;71.00;;;;;;5102797;28;19971;-71
2021/12/10 05:20:48;;;;;;;;;;;13.10;71.00;;;;;;5102529;28;19907;-71
2021/12/10 05:23:17;;;;;;;;;;;13.10;71.00;;;;;;5102548;28;19915;-71
2021/12/10 05:25:43;;;;;;;;;;;13.20;71.00;;;;;;5102543;28;19914;-71
2021/12/10 05:28:09;;;;;;;;;;;13.20;70.90;;;;;;5102470;28;19931;-72
2021/12/10 05:30:35;;;;;;;;;;;13.20;71.10;;;;;;5102378;28;19908;-71
2021/12/10 05:33:03;;;;;;;;;;;13.20;70.90;;;;;;5102430;28;19979;-71
2021/12/10 05:35:30;;;;;;;;;;;13.20;71.00;;;;;;5102566;28;19943;-71
2021/12/10 05:37:56;;;;;;;;;;;13.20;70.90;;;;;;5102285;28;19900;-71
2021/12/10 05:40:23;;;;;;;;;;;13.10;70.90;;;;;;5102300;28;19961;-70
2021/12/10 05:42:49;;;;;;;;;;;13.10;71.00;;;;;;5102176;28;20281;-70
2021/12/10 05:45:15;;;;;;;;;;;13.10;71.00;;;;;;5102148;28;19908;-71
2021/12/10 05:47:41;;;;;;;;;;;13.20;71.10;;;;;;5102085;28;20202;-70
2021/12/10 05:50:07;;;;;;;;;;;13.10;71.10;;;;;;5101973;28;19908;-70
2021/12/10 05:52:33;;;;;;;;;;;13.10;71.10;;;;;;5101991;28;19914;-70
2021/12/10 05:54:59;;;;;;;;;;;13.20;71.00;;;;;;5101793;28;19920;-70
2021/12/10 05:57:24;;;;;;;;;;;13.20;71.00;;;;;;5101912;28;19907;-71
2021/12/10 05:59:50;;;;;;;;;;;13.20;71.00;;;;;;5101876;28;19900;-71
2021/12/10 06:02:15;;;;;;;;;;;13.20;71.00;;;;;;5101790;28;19900;-70
2021/12/10 06:04:42;;;;;;;;;;;13.10;71.00;;;;;;5101820;28;19915;-70
2021/12/10 06:07:08;;;;;;;;;;;13.20;71.10;;;;;;5101801;28;19908;-70
2021/12/10 06:09:33;;;;;;;;;;;13.10;70.80;;;;;;5101696;28;19908;-70
2021/12/10 06:12:00;;;;;;;;;;;13.20;71.00;;;;;;5101960;28;20103;-70
2021/12/10 06:14:26;;;;;;;;;;;13.20;71.00;;;;;;5101489;28;19903;-71
2021/12/10 06:16:54;;;;;;;;;;;13.20;70.80;;;;;;5101562;28;19975;-72
2021/12/10 06:19:19;;;;;;;;;;;13.20;71.00;;;;;;5101600;28;20234;-71
2021/12/10 06:21:45;;;;;;;;;;;13.20;70.90;;;;;;5101445;28;19900;-70
2021/12/10 06:24:11;;;;;;;;;;;13.20;71.00;;;;;;5101386;28;19907;-71
2021/12/10 06:26:36;;;;;;;;;;;13.20;71.00;;;;;;5101384;28;19935;-71
2021/12/10 06:29:03;;;;;;;;;;;13.20;71.10;;;;;;5083242;28;19942;-72
2021/12/10 06:31:29;;;;;;;;;;;13.10;70.80;;;;;;5101324;28;20252;-71
2021/12/10 06:33:56;;;;;;;;;;;13.20;71.00;;;;;;5101266;28;19900;-71
2021/12/10 06:36:22;;;;;;;;;;;13.20;71.00;;;;;;5101133;28;20383;-70
2021/12/10 06:38:48;;;;;;;;;;;13.20;71.00;;;;;;5101105;28;19908;-70
2021/12/10 06:41:14;;;;;;;;;;;13.20;70.80;;;;;;5101103;28;19908;-70
2021/12/10 06:43:40;;;;;;;;;;;13.20;70.70;;;;;;5100990;28;19914;-70
2021/12/10 06:46:06;;;;;;;;;;;13.20;70.70;;;;;;5101049;28;19934;-71
2021/12/10 06:48:32;;;;;;;;;;;13.20;70.70;;;;;;5082727;28;20146;-71
2021/12/10 06:50:59;;;;;;;;;;;13.20;70.70;;;;;;5100967;28;19915;-71
2021/12/10 06:53:26;;;;;;;;;;;13.20;70.70;;;;;;5100944;28;19904;-71
2021/12/10 06:55:52;;;;;;;;;;;13.20;70.80;;;;;;5100556;28;20017;-72
2021/12/10 06:58:19;;;;;;;;;;;13.20;70.80;;;;;;5100781;28;19911;-70
2021/12/10 07:00:47;;;;;;;;;;;13.20;70.80;;;;;;5100758;28;19979;-70
2021/12/10 07:03:14;;;;;;;;;;;13.20;70.70;;;;;;5100688;28;19908;-71
2021/12/10 07:05:40;;;;;;;;;;;13.20;70.70;;;;;;5082460;28;19900;-70
2021/12/10 07:08:06;;;;;;;;;;;13.20;70.60;;;;;;5100604;28;19931;-69
2021/12/10 07:10:32;;;;;;;;;;;13.20;70.60;;;;;;5100561;28;19908;-71
2021/12/10 07:12:57;;;;;;;;;;;13.20;70.60;;;;;;5100574;28;19943;-69
2021/12/10 07:15:23;;;;;;;;;;;13.20;70.80;;;;;;5100385;28;19919;-71
2021/12/10 07:17:50;;;;;;;;;;;13.20;70.60;;;;;;5100433;28;19908;-70
2021/12/10 07:20:16;;;;;;;;;;;13.20;70.70;;;;;;5100364;28;19924;-70
2021/12/10 07:22:42;;;;;;;;;;;13.20;70.50;;;;;;5100337;28;20116;-71
2021/12/10 07:25:08;;;;;;;;;;;13.30;70.50;;;;;;5082169;28;19934;-70
2021/12/10 07:27:34;;;;;;;;;;;13.20;70.30;;;;;;5100265;28;19965;-70
2021/12/10 07:29:59;;;;;;;;;;;13.30;70.50;;;;;;5100302;28;20200;-69
2021/12/10 07:32:25;;;;;;;;;;;13.30;70.50;;;;;;5100173;28;19922;-70
2021/12/10 07:34:51;;;;;;;;;;;13.30;70.40;;;;;;5100158;28;19969;-71
2021/12/10 07:37:16;;;;;;;;;;;13.30;70.40;;;;;;5081996;28;20188;-70
2021/12/10 07:39:42;;;;;;;;;;;13.30;70.40;;;;;;5100145;28;20195;-71
2021/12/10 07:42:09;;;;;;;;;;;13.30;70.30;;;;;;5100032;28;19973;-71
2021/12/10 07:44:35;;;;;;;;;;;13.30;70.20;;;;;;5100018;28;19915;-70
2021/12/10 07:47:08;;;;;;;;;;;13.30;70.20;;;;;;5081881;28;20180;-71
2021/12/10 07:49:34;;;;;;;;;;;13.30;70.00;;;;;;5099994;28;20379;-71
2021/12/10 07:52:00;;;;;;;;;;;13.30;70.00;;;;;;5100004;28;20262;-72
2021/12/10 07:54:26;;;;;;;;;;;13.30;70.20;;;;;;5099748;28;19979;-71
2021/12/10 07:56:52;;;;;;;;;;;13.30;70.10;;;;;;5099912;28;19915;-71
2021/12/10 07:59:18;;;;;;;;;;;13.30;70.20;;;;;;5081748;28;20181;-70
2021/12/10 08:01:44;;;;;;;;;;;13.30;70.30;;;;;;5081779;28;19908;-71
2021/12/10 08:04:09;;;;;;;;;;;13.30;70.10;;;;;;5081817;28;20107;-70
2021/12/10 08:06:35;;;;;;;;;;;13.30;70.10;;;;;;5099770;28;19900;-71
2021/12/10 08:09:03;;;;;;;;;;;13.30;70.10;;;;;;5099819;28;19946;-71
2021/12/10 08:11:29;;;;;;;;;;;13.30;70.00;;;;;;5099784;28;19966;-70
2021/12/10 08:13:54;;;;;;;;;;;13.40;69.90;;;;;;5081629;28;20196;-71
2021/12/10 08:16:23;;;;;;;;;;;13.40;70.00;;;;;;5099745;28;20191;-70
2021/12/10 08:18:50;;;;;;;;;;;13.40;70.00;;;;;;5099777;28;20346;-71
2021/12/10 08:21:17;;;;;;;;;;;13.40;70.00;;;;;;5099732;28;19904;-71
2021/12/10 08:23:42;;;;;;;;;;;13.40;70.00;;;;;;5099728;28;19978;-71
2021/12/10 08:26:09;;;;;;;;;;;13.40;70.00;;;;;;5099753;28;19908;-70
2021/12/10 08:28:35;;;;;;;;;;;13.40;69.90;;;;;;5099594;28;19900;-71
2021/12/10 08:31:01;;;;;;;;;;;13.40;70.00;;;;;;5099595;28;19907;-71
2021/12/10 08:33:27;;;;;;;;;;;13.40;70.10;;;;;;5099615;28;19908;-70
2021/12/10 08:35:54;;;;;;;;;;;13.40;69.90;;;;;;5099486;28;19979;-71
2021/12/10 08:38:20;;;;;;;;;;;13.40;69.90;;;;;;5102059;28;20131;-69
2021/12/10 08:40:51;;;;;;;;;;;13.40;69.70;;;;;;5085275;28;19937;-70
2021/12/10 08:43:17;;;;;;;;;;;13.40;69.80;;;;;;5103716;28;19911;-70
2021/12/10 08:45:43;;;;;;;;;;;13.40;69.70;;;;;;5103391;28;20186;-72
2021/12/10 08:48:09;;;;;;;;;;;13.40;69.70;;;;;;5103266;28;19907;-71
2021/12/10 08:50:35;;;;;;;;;;;13.40;69.80;;;;;;5085094;28;19915;-71
2021/12/10 08:53:03;;;;;;;;;;;13.40;69.70;;;;;;5103185;28;19931;-71
2021/12/10 08:55:29;;;;;;;;;;;13.40;69.70;;;;;;5103008;28;19926;-71
2021/12/10 08:57:55;;;;;;;;;;;13.40;69.40;;;;;;5103132;28;19985;-72
2021/12/10 09:00:20;;;;;;;;;;;13.50;69.50;;;;;;5103181;28;19914;-70
2021/12/10 09:02:50;;;;;;;;;;;13.50;69.50;;;;;;5103085;28;20211;-71
2021/12/10 09:05:15;;;;;;;;;;;13.50;69.50;;;;;;5102942;28;20180;-70
2021/12/10 09:07:44;;;;;;;;;;;13.50;69.50;;;;;;5102931;28;19935;-70
2021/12/10 09:10:11;;;;;;;;;;;13.50;69.40;;;;;;5102969;28;19963;-71
2021/12/10 09:12:37;;;;;;;;;;;13.50;69.20;;;;;;5102883;28;19982;-71
2021/12/10 09:15:05;;;;;;;;;;;13.60;69.30;;;;;;5102796;28;20403;-71
2021/12/10 09:17:32;;;;;;;;;;;13.60;68.90;;;;;;5102828;28;20090;-71
2021/12/10 09:19:59;;;;;;;;;;;13.60;69.10;;;;;;5102735;28;20026;-71
2021/12/10 09:22:25;;;;;;;;;;;13.60;69.10;;;;;;5102647;28;19993;-70
2021/12/10 09:24:54;;;;;;;;;;;13.60;69.10;;;;;;5102654;28;20147;-72
2021/12/10 09:27:19;;;;;;;;;;;13.60;68.90;;;;;;5102552;28;20115;-71
2021/12/10 09:29:46;;;;;;;;;;;13.60;68.90;;;;;;5102574;28;19907;-70
2021/12/10 09:32:13;;;;;;;;;;;13.60;68.90;;;;;;5102570;28;19908;-71
2021/12/10 09:34:39;;;;;;;;;;;13.60;68.90;;;;;;5102489;28;19908;-70
2021/12/10 09:37:05;;;;;;;;;;;13.60;68.80;;;;;;5102348;28;20213;-71
2021/12/10 09:39:32;;;;;;;;;;;13.60;68.90;;;;;;5084219;28;19900;-70
2021/12/10 09:41:59;;;;;;;;;;;13.60;68.90;;;;;;5102392;28;20111;-70
2021/12/10 09:44:25;;;;;;;;;;;13.60;68.80;;;;;;5102115;28;19915;-73
2021/12/10 09:46:51;;;;;;;;;;;13.60;68.70;;;;;;5102335;28;19900;-71
2021/12/10 09:49:17;;;;;;;;;;;13.60;69.10;;;;;;5101873;28;19957;-71
2021/12/10 09:51:45;;;;;;;;;;;13.60;69.10;;;;;;5084024;28;19908;-72
2021/12/10 09:54:13;;;;;;;;;;;13.60;69.10;;;;;;5101988;28;20385;-71
2021/12/10 09:56:41;;;;;;;;;;;13.60;69.00;;;;;;5102049;28;19908;-71
2021/12/10 09:59:06;;;;;;;;;;;13.60;69.00;;;;;;5101910;28;19941;-71
2021/12/10 10:01:34;;;;;;;;;;;13.60;69.00;;;;;;5102086;28;19908;-72
2021/12/10 10:04:01;;;;;;;;;;;13.60;68.70;;;;;;5101971;28;19908;-71
2021/12/10 10:06:28;;;;;;;;;;;13.60;68.70;;;;;;5101879;28;19908;-71
2021/12/10 10:08:53;;;;;;;;;;;13.60;68.70;;;;;;5101938;28;19914;-71
2021/12/10 10:11:21;;;;;;;;;;;13.60;69.00;;;;;;5101803;28;19908;-71
2021/12/10 10:13:49;;;;;;;;;;;13.60;69.00;;;;;;5101685;28;19908;-71
2021/12/10 10:16:15;;;;;;;;;;;13.60;68.90;;;;;;5101616;28;19986;-70
2021/12/10 10:18:42;;;;;;;;;;;13.60;68.90;;;;;;5083358;28;19900;-71
2021/12/10 10:21:10;;;;;;;;;;;13.60;69.00;;;;;;5101673;28;19980;-70
2021/12/10 10:23:38;;;;;;;;;;;13.60;68.80;;;;;;5101561;28;19922;-71
2021/12/10 10:26:07;;;;;;;;;;;13.60;68.80;;;;;;5101554;28;20204;-71
2021/12/10 10:28:33;;;;;;;;;;;13.60;69.00;;;;;;5101736;28;19916;-72
2021/12/10 10:31:05;;;;;;;;;;;13.60;68.90;;;;;;5101480;28;19959;-71
2021/12/10 10:33:34;;;;;;;;;;;13.60;69.00;;;;;;5101452;28;19900;-71
2021/12/10 10:36:06;;;;;;;;;;;13.60;68.80;;;;;;5082951;28;19919;-72
2021/12/10 10:38:32;;;;;;;;;;;13.60;68.90;;;;;;5101322;28;20250;-70
2021/12/10 10:41:03;;;;;;;;;;;13.60;68.80;;;;;;5101191;28;19907;-70
2021/12/10 10:43:29;;;;;;;;;;;13.60;68.80;;;;;;5082992;28;19952;-72
2021/12/10 10:45:55;;;;;;;;;;;13.70;68.90;;;;;;5101100;28;20211;-69
2021/12/10 10:48:20;;;;;;;;;;;13.70;68.90;;;;;;5101163;28;19942;-70
2021/12/10 10:50:55;;;;;;;;;;;13.60;69.10;;;;;;5082897;28;20305;-70
2021/12/10 10:53:22;;;;;;;;;;;13.70;69.00;;;;;;5101059;28;19928;-70
2021/12/10 10:56:08;;;;;;;;;;;13.60;69.10;;;;;;5100695;28;20116;-72
2021/12/10 10:58:42;;;;;;;;;;;13.60;69.00;;;;;;5100144;28;19930;-70
2021/12/10 11:01:22;;;;;;;;;;;13.70;68.90;;;;;;5100182;28;19953;-71
2021/12/10 11:03:53;;;;;;;;;;;13.70;68.90;;;;;;5100787;28;19907;-70
2021/12/10 11:06:31;;;;;;;;;;;13.70;68.90;;;;;;5100872;28;19908;-71
2021/12/10 11:09:11;;;;;;;;;;;13.70;68.90;;;;;;5100729;28;19900;-70
2021/12/10 11:11:41;;;;;;;;;;;13.70;68.80;;;;;;5100635;28;19908;-71
2021/12/10 11:14:12;;;;;;;;;;;13.70;69.00;;;;;;5082410;28;19946;-70
2021/12/10 11:16:38;;;;;;;;;;;13.70;69.00;;;;;;5100459;28;19912;-71
2021/12/10 11:19:09;;;;;;;;;;;13.70;69.00;;;;;;5100506;28;19908;-70
2021/12/10 11:21:38;;;;;;;;;;;13.70;68.90;;;;;;5100551;28;20188;-71
2021/12/10 11:24:12;;;;;;;;;;;13.60;68.90;;;;;;5100490;28;20235;-70
2021/12/10 11:26:47;;;;;;;;;;;13.70;68.80;;;;;;5100598;28;19998;-70
2021/12/10 11:29:31;;;;;;;;;;;13.70;68.90;;;;;;5100397;28;19907;-71
2021/12/10 11:32:01;;;;;;;;;;;13.70;68.90;;;;;;5100586;28;20079;-70
2021/12/10 11:34:45;;;;;;;;;;;13.70;68.90;;;;;;5100231;28;19973;-70
2021/12/10 11:37:12;;;;;;;;;;;13.70;68.80;;;;;;5100269;28;20213;-70
2021/12/10 11:39:42;;;;;;;;;;;13.70;68.80;;;;;;5100564;28;20190;-70
2021/12/10 11:42:26;;;;;;;;;;;13.80;68.50;;;;;;5100241;28;19908;-70
2021/12/10 11:45:15;;;;;;;;;;;13.80;68.50;;;;;;5100225;28;19900;-70
2021/12/10 11:47:50;;;;;;;;;;;13.70;68.50;;;;;;5099938;28;19907;-71
2021/12/10 11:50:17;;;;;;;;;;;13.70;68.10;;;;;;5100664;28;19934;-72
2021/12/10 11:52:43;;;;;;;;;;;13.80;68.60;;;;;;5100009;28;19908;-70
2021/12/10 11:55:10;;;;;;;;;;;13.80;68.30;;;;;;5099748;28;19958;-70
2021/12/10 11:57:40;;;;;;;;;;;13.80;68.30;;;;;;5100001;28;20096;-70
2021/12/10 12:00:11;;;;;;;;;;;13.80;68.20;;;;;;5099954;28;19900;-71
2021/12/10 12:02:58;;;;;;;;;;;13.80;68.00;;;;;;5099890;28;19908;-70
2021/12/10 12:05:40;;;;;;;;;;;13.80;68.00;;;;;;5099866;28;20471;-70
2021/12/10 12:08:07;;;;;;;;;;;13.80;68.10;;;;;;5099897;28;19996;-70
2021/12/10 12:10:38;;;;;;;;;;;13.80;68.20;;;;;;5099921;28;19912;-71
2021/12/10 12:13:30;;;;;;;;;;;13.80;68.30;;;;;;5103737;28;20120;-70
2021/12/10 12:15:58;;;;;;;;;;;13.80;68.40;;;;;;5103403;28;19910;-71
2021/12/10 12:18:26;;;;;;;;;;;13.80;67.70;;;;;;5103992;28;20216;-71
2021/12/10 12:20:54;;;;;;;;;;;13.80;67.70;;;;;;5103965;28;19900;-71
2021/12/10 12:26:12;;;;;;;;;;;13.80;68.20;;;;;;5103861;28;19962;-70
2021/12/10 12:28:49;;;;;;;;;;;13.80;67.90;;;;;;5103817;28;19907;-70
2021/12/10 12:31:20;;;;;;;;;;;13.80;68.10;;;;;;5103768;28;19937;-70
2021/12/10 12:34:04;;;;;;;;;;;13.80;68.50;;;;;;5103676;28;19907;-71
2021/12/10 12:36:29;;;;;;;;;;;13.80;68.50;;;;;;5103563;28;19912;-71
2021/12/10 12:38:55;;;;;;;;;;;13.80;68.30;;;;;;5103561;28;19938;-71
2021/12/10 12:41:29;;;;;;;;;;;13.80;68.30;;;;;;5103610;28;19900;-70
2021/12/10 12:44:07;;;;;;;;;;;13.80;68.30;;;;;;5103508;28;19915;-71
2021/12/10 12:46:33;;;;;;;;;;;13.80;68.20;;;;;;5103463;28;19908;-71
2021/12/10 12:48:59;;;;;;;;;;;13.80;67.90;;;;;;5103455;28;19915;-71
2021/12/10 12:51:25;;;;;;;;;;;13.80;68.30;;;;;;5103311;28;19907;-71
2021/12/10 12:53:52;;;;;;;;;;;13.80;68.50;;;;;;5103360;28;19899;-71
2021/12/10 12:56:19;;;;;;;;;;;13.80;68.20;;;;;;5103050;28;19951;-71
2021/12/10 12:58:49;;;;;;;;;;;13.80;68.40;;;;;;5103237;28;19975;-71
2021/12/10 13:01:34;;;;;;;;;;;13.80;68.50;;;;;;5103158;28;19915;-72
2021/12/10 13:04:02;;;;;;;;;;;13.80;68.70;;;;;;5084943;28;19908;-72
2021/12/10 13:06:31;;;;;;;;;;;13.80;68.80;;;;;;5103123;28;19979;-71
2021/12/10 13:09:03;;;;;;;;;;;13.80;68.70;;;;;;5103146;28;19899;-71
2021/12/10 13:11:33;;;;;;;;;;;13.70;68.70;;;;;;5102982;28;19916;-71
2021/12/10 13:14:15;;;;;;;;;;;13.70;68.50;;;;;;5103047;28;19915;-70
2021/12/10 13:16:49;;;;;;;;;;;13.80;68.40;;;;;;5084645;28;20100;-71
2021/12/10 13:19:18;;;;;;;;;;;13.70;68.60;;;;;;5102825;28;19915;-71
2021/12/10 13:21:45;;;;;;;;;;;13.80;68.70;;;;;;5102871;28;20245;-71
2021/12/10 13:24:12;;;;;;;;;;;13.80;68.70;;;;;;5102072;28;19937;-70
2021/12/10 13:26:37;;;;;;;;;;;13.80;68.60;;;;;;5084531;28;19939;-70
2021/12/10 13:29:03;;;;;;;;;;;13.80;68.70;;;;;;5102687;28;20117;-71
2021/12/10 13:31:29;;;;;;;;;;;13.80;68.60;;;;;;5102687;28;19908;-71
2021/12/10 13:33:55;;;;;;;;;;;13.80;68.50;;;;;;5084360;28;19984;-71
2021/12/10 13:36:21;;;;;;;;;;;13.80;68.70;;;;;;5102539;28;19903;-71
2021/12/10 13:38:48;;;;;;;;;;;13.70;68.70;;;;;;5102505;28;20438;-71
2021/12/10 13:41:15;;;;;;;;;;;13.70;68.70;;;;;;5102453;28;19935;-71
2021/12/10 13:43:48;;;;;;;;;;;13.70;68.70;;;;;;5102481;28;19900;-70
2021/12/10 13:46:15;;;;;;;;;;;13.70;68.80;;;;;;5102344;28;19943;-70
2021/12/10 13:48:41;;;;;;;;;;;13.70;68.80;;;;;;5102373;28;19907;-71
2021/12/10 13:51:08;;;;;;;;;;;13.80;68.80;;;;;;5084091;28;19983;-71
2021/12/10 13:53:33;;;;;;;;;;;13.70;68.80;;;;;;5083993;28;19950;-71
2021/12/10 13:56:01;;;;;;;;;;;13.70;68.90;;;;;;5102108;28;19991;-71
2021/12/10 13:58:41;;;;;;;;;;;13.70;68.90;;;;;;5102157;28;19944;-71
2021/12/10 14:01:22;;;;;;;;;;;13.70;69.00;;;;;;5102089;28;19904;-70
2021/12/10 14:03:56;;;;;;;;;;;13.70;69.10;;;;;;5101977;28;20203;-70
2021/12/10 14:06:25;;;;;;;;;;;13.70;69.00;;;;;;5102063;28;19957;-71
2021/12/10 14:09:06;;;;;;;;;;;13.70;69.10;;;;;;5101949;28;19904;-71
2021/12/10 14:11:51;;;;;;;;;;;13.70;69.10;;;;;;5101954;28;20295;-70
2021/12/10 14:14:16;;;;;;;;;;;13.70;69.20;;;;;;5101857;28;19911;-70
2021/12/10 14:16:46;;;;;;;;;;;13.70;69.10;;;;;;5083590;28;19982;-71
2021/12/10 14:19:27;;;;;;;;;;;13.70;69.20;;;;;;5101768;28;19962;-71
2021/12/10 14:21:52;;;;;;;;;;;13.70;69.30;;;;;;5101711;28;19908;-72